Time;durP1;ratioP1;P1;durP2;ratioP2;P2;SDS_P1;SDS_P2;PMS_P1;PMS_P2;Temp;Humidity;BMP_temperature;BMP_pressure;BME280_temperature;BME280_humidity;BME280_pressure;Samples;Min_cycle;Max_cycle;Signal;HPM_P1;HPM_P2
2023/12/06 00:00:06;;;;;;;118.57;58.22;;;;;;;-0.16;100.00;160532.28;5048751;28;20094;-59
2023/12/06 00:02:32;;;;;;;128.35;70.35;;;;;;;-0.22;100.00;160517.53;5069748;28;20391;-59
2023/12/06 00:04:59;;;;;;;129.48;69.72;;;;;;;-0.20;100.00;160522.91;5063023;28;20033;-60
2023/12/06 00:07:24;;;;;;;129.48;61.72;;;;;;;-0.18;100.00;160528.28;5049553;28;20051;-60
2023/12/06 00:09:49;;;;;;;132.82;62.53;;;;;;;-0.34;100.00;160485.41;5049037;28;20087;-59
2023/12/06 00:12:15;;;;;;;115.32;59.70;;;;;;;-0.20;100.00;160521.59;5049783;28;20040;-59
2023/12/06 00:14:40;;;;;;;135.85;62.83;;;;;;;-0.18;100.00;160526.91;5048848;28;20599;-59
2023/12/06 00:17:05;;;;;;;132.05;63.08;;;;;;;-0.16;100.00;160532.28;5051494;28;20040;-60
2023/12/06 00:19:31;;;;;;;121.15;63.00;;;;;;;-0.12;100.00;160541.69;5052439;28;20033;-60
2023/12/06 00:21:56;;;;;;;129.38;64.30;;;;;;;-0.15;100.00;160534.97;5068787;28;20032;-60
2023/12/06 00:24:21;;;;;;;134.95;63.47;;;;;;;-0.13;100.00;160539.00;5071024;28;20032;-60
2023/12/06 00:26:48;;;;;;;130.40;60.75;;;;;;;-0.16;100.00;160532.28;5054206;28;20036;-60
2023/12/06 00:29:13;;;;;;;126.40;63.55;;;;;;;-0.15;100.00;160534.97;5052346;28;20013;-58
2023/12/06 00:31:39;;;;;;;130.60;65.63;;;;;;;-0.14;100.00;160537.66;5054001;28;20040;-59
2023/12/06 00:34:04;;;;;;;144.73;67.05;;;;;;;-0.13;100.00;160540.34;5052277;28;20028;-59
2023/12/06 00:36:29;;;;;;;140.40;66.53;;;;;;;-0.18;100.00;160526.91;5069253;28;20591;-59
2023/12/06 00:38:55;;;;;;;147.50;72.75;;;;;;;-0.17;100.00;160529.59;5073825;28;20078;-59
2023/12/06 00:41:22;;;;;;;168.73;78.47;;;;;;;-0.15;100.00;160534.97;5052980;28;20052;-59
2023/12/06 00:43:51;;;;;;;181.35;87.35;;;;;;;-0.14;100.00;160537.66;5053549;28;20025;-59
2023/12/06 00:46:19;;;;;;;164.05;81.07;;;;;;;-0.14;100.00;160537.66;5052090;28;20087;-59
2023/12/06 00:48:45;;;;;;;158.13;73.35;;;;;;;-0.17;100.00;160529.59;5054041;28;20025;-59
2023/12/06 00:51:10;;;;;;;172.13;79.53;;;;;;;-0.15;100.00;160534.97;5051686;28;20044;-59
2023/12/06 00:53:35;;;;;;;175.85;81.50;;;;;;;-0.15;100.00;160534.97;5062844;28;20024;-59
2023/12/06 00:56:01;;;;;;;156.43;75.40;;;;;;;-0.16;100.00;160532.28;5072052;28;20036;-59
2023/12/06 00:58:26;;;;;;;160.18;79.63;;;;;;;-0.16;100.00;160532.28;5072952;28;20025;-59
2023/12/06 01:00:51;;;;;;;146.82;72.05;;;;;;;-0.14;100.00;160537.66;5072084;28;20040;-59
2023/12/06 01:03:17;;;;;;;149.18;79.25;;;;;;;-0.13;100.00;160540.34;5055506;28;20033;-59
2023/12/06 01:05:42;;;;;;;159.90;73.53;;;;;;;-0.14;100.00;160537.66;5051717;28;20095;-60
2023/12/06 01:08:08;;;;;;;163.60;77.55;;;;;;;-0.15;100.00;160534.97;5053603;28;20024;-60
2023/12/06 01:10:34;;;;;;;157.15;75.47;;;;;;;-0.16;100.00;160532.28;5051615;28;20480;-60
2023/12/06 01:13:00;;;;;;;140.18;74.97;;;;;;;-0.12;100.00;160543.03;5055956;28;20499;-60
2023/12/06 01:15:25;;;;;;;126.68;68.45;;;;;;;-0.18;100.00;160526.91;5071490;28;20048;-60
2023/12/06 01:17:51;;;;;;;135.13;65.60;;;;;;;-0.16;100.00;160532.28;5073226;28;20024;-60
2023/12/06 01:20:16;;;;;;;140.95;70.78;;;;;;;-0.15;100.00;160533.66;5071041;28;20110;-60
2023/12/06 01:22:41;;;;;;;144.50;70.07;;;;;;;-0.11;100.00;160544.38;5055500;28;20036;-59
2023/12/06 01:25:07;;;;;;;135.25;67.05;;;;;;;-0.20;100.00;160521.59;5071626;28;20565;-59
2023/12/06 01:27:35;;;;;;;143.57;72.47;;;;;;;-0.21;100.00;160518.91;5071940;28;20039;-59
2023/12/06 01:30:01;;;;;;;139.15;67.88;;;;;;;-0.17;100.00;160529.59;5071179;28;20116;-59
2023/12/06 01:32:26;;;;;;;147.82;71.43;;;;;;;-0.19;100.00;160524.28;5054200;28;20029;-59
2023/12/06 01:34:51;;;;;;;140.50;71.63;;;;;;;-0.16;100.00;160532.28;5051050;28;20573;-59
2023/12/06 01:37:17;;;;;;;136.00;70.88;;;;;;;-0.17;100.00;160529.59;5052555;28;20057;-59
2023/12/06 01:39:42;;;;;;;137.18;70.32;;;;;;;-0.17;100.00;160530.97;5051323;28;20041;-59
2023/12/06 01:42:07;;;;;;;138.00;73.30;;;;;;;-0.18;100.00;160526.91;5052278;28;20040;-59
2023/12/06 01:44:33;;;;;;;137.10;72.32;;;;;;;-0.19;100.00;160524.28;5066525;28;20106;-60
2023/12/06 01:46:58;;;;;;;134.77;70.20;;;;;;;-0.37;100.00;160478.72;5072614;28;20028;-60
2023/12/06 01:49:25;;;;;;;130.85;70.55;;;;;;;-0.20;100.00;160522.91;5062733;28;20045;-60
2023/12/06 01:51:51;;;;;;;138.00;74.20;;;;;;;-0.17;100.00;160529.59;5052432;28;20107;-60
2023/12/06 01:54:17;;;;;;;133.25;66.45;;;;;;;-0.18;100.00;160528.28;5050569;28;20032;-60
2023/12/06 01:56:44;;;;;;;119.13;62.15;;;;;;;-0.17;100.00;160529.59;5052116;28;20066;-60
2023/12/06 01:59:11;;;;;;;125.63;68.47;;;;;;;-0.17;100.00;160529.59;5050986;28;20426;-60
2023/12/06 02:01:37;;;;;;;125.72;67.40;;;;;;;-0.19;100.00;160524.28;5061210;28;20514;-60
2023/12/06 02:04:02;;;;;;;123.32;66.40;;;;;;;-0.17;100.00;160529.59;5070561;28;20024;-60
2023/12/06 02:06:28;;;;;;;122.82;65.13;;;;;;;-0.15;100.00;160534.97;5071986;28;20063;-60
2023/12/06 02:08:54;;;;;;;125.40;68.15;;;;;;;-0.15;100.00;160534.97;5064186;28;20478;-60
2023/12/06 02:11:19;;;;;;;118.10;70.38;;;;;;;-0.15;100.00;160534.97;5050521;28;20041;-60
2023/12/06 02:13:45;;;;;;;104.82;61.17;;;;;;;-0.17;100.00;160529.59;5051958;28;20024;-60
2023/12/06 02:16:10;;;;;;;114.18;62.80;;;;;;;-0.13;100.00;160540.34;5051586;28;20231;-60
2023/12/06 02:18:36;;;;;;;114.88;66.53;;;;;;;-0.12;100.00;160543.03;5051688;28;20047;-60
2023/12/06 02:21:03;;;;;;;112.55;62.17;;;;;;;-0.14;100.00;160537.66;5069709;28;20059;-60
2023/12/06 02:23:35;;;;;;;106.07;61.35;;;;;;;-0.10;100.00;160548.38;5072068;28;20433;-60
2023/12/06 02:26:01;;;;;;;122.03;58.92;;;;;;;-0.06;100.00;160557.75;5069947;28;20044;-60
2023/12/06 02:28:26;;;;;;;107.03;65.32;;;;;;;-0.06;100.00;160559.13;5071639;28;20361;-60
2023/12/06 02:30:51;;;;;;;111.38;64.30;;;;;;;-0.10;100.00;160548.38;5068811;28;20047;-60
2023/12/06 02:33:17;;;;;;;107.55;63.40;;;;;;;-0.05;100.00;160560.44;5056459;28;20032;-60
2023/12/06 02:35:47;;;;;;;111.65;64.68;;;;;;;-0.02;100.00;160569.81;5050092;28;20037;-60
2023/12/06 02:38:16;;;;;;;102.38;58.80;;;;;;;-0.01;100.00;160572.50;5051455;28;20447;-60
2023/12/06 02:40:45;;;;;;;101.50;63.15;;;;;;;0.03;100.00;160581.88;5049039;28;20068;-60
2023/12/06 02:43:12;;;;;;;;;;;;;;;0.03;100.00;160580.56;5059472;28;20040;-60
2023/12/06 02:45:37;;;;;;;101.95;57.58;;;;;;;-0.03;100.00;160565.81;5069946;28;19920;-60
2023/12/06 02:48:05;;;;;;;110.15;63.50;;;;;;;-0.05;100.00;160561.81;5071099;28;20073;-60
2023/12/06 02:50:31;;;;;;;105.70;60.92;;;;;;;-0.02;100.00;160569.81;5055037;28;20049;-60
2023/12/06 02:52:56;;;;;;;103.80;60.53;;;;;;;-0.03;100.00;160565.81;5051379;28;20032;-58
2023/12/06 02:55:21;;;;;;;110.22;61.80;;;;;;;-0.01;100.00;160572.50;5049214;28;20051;-58
2023/12/06 02:57:47;;;;;;;111.68;63.60;;;;;;;0.00;100.00;160573.88;5051258;28;20029;-58
2023/12/06 03:00:12;;;;;;;104.15;60.72;;;;;;;-0.01;100.00;160572.50;5060792;28;20345;-59
2023/12/06 03:02:38;;;;;;;104.93;59.15;;;;;;;0.01;100.00;160575.19;5056843;28;20055;-59
2023/12/06 03:05:03;;;;;;;110.53;64.15;;;;;;;-0.07;100.00;160556.44;5060818;28;20447;-59
2023/12/06 03:07:29;;;;;;;103.35;63.35;;;;;;;-0.03;100.00;160565.81;5050890;28;20033;-59
2023/12/06 03:09:56;;;;;;;111.72;61.58;;;;;;;-0.03;100.00;160565.81;5049554;28;20492;-59
2023/12/06 03:12:21;;;;;;;102.28;63.03;;;;;;;0.03;100.00;160580.56;5050760;28;20029;-59
2023/12/06 03:14:46;;;;;;;106.80;64.53;;;;;;;0.05;100.00;160585.88;5049418;28;20048;-59
2023/12/06 03:17:12;;;;;;;104.00;60.72;;;;;;;0.05;100.00;160585.88;5050559;28;20519;-59
2023/12/06 03:19:37;;;;;;;109.88;61.90;;;;;;;0.02;100.00;160579.19;5055479;28;20055;-59
2023/12/06 03:22:03;;;;;;;109.88;65.03;;;;;;;0.01;100.00;160576.50;5071038;28;20024;-59
2023/12/06 03:24:28;;;;;;;107.00;62.95;;;;;;;0.02;100.00;160579.19;5069034;28;20052;-59
2023/12/06 03:26:53;;;;;;;102.18;62.17;;;;;;;-0.01;100.00;160572.50;5070335;28;20016;-59
2023/12/06 03:29:19;;;;;;;105.55;61.30;;;;;;;0.01;100.00;160575.19;5065797;28;20508;-59
2023/12/06 03:31:44;;;;;;;115.68;65.43;;;;;;;0.04;100.00;160584.56;5070766;28;20031;-59
2023/12/06 03:34:09;;;;;;;105.90;63.67;;;;;;;0.04;100.00;160583.25;5051026;28;20024;-58
2023/12/06 03:36:35;;;;;;;120.20;67.88;;;;;;;0.05;100.00;160585.88;5050375;28;20413;-59
2023/12/06 03:39:00;;;;;;;108.32;65.22;;;;;;;0.06;100.00;160588.56;5049311;28;20075;-59
2023/12/06 03:41:26;;;;;;;105.53;62.25;;;;;;;0.05;100.00;160585.88;5069344;28;20009;-60
2023/12/06 03:43:51;;;;;;;115.00;66.57;;;;;;;0.08;100.00;160593.94;5070653;28;20388;-60
2023/12/06 03:46:16;;;;;;;117.07;67.93;;;;;;;0.10;100.00;160599.31;5068968;28;20052;-60
2023/12/06 03:48:42;;;;;;;115.85;67.20;;;;;;;0.13;100.00;160607.34;5070359;28;20085;-59
2023/12/06 03:51:07;;;;;;;112.78;65.10;;;;;;;0.16;100.00;160615.41;5052300;28;20056;-58
2023/12/06 03:53:33;;;;;;;111.72;61.08;;;;;;;0.09;100.00;160596.63;5056829;28;20078;-59
2023/12/06 03:55:58;;;;;;;114.60;63.38;;;;;;;0.16;100.00;160615.41;5055358;28;20052;-58
2023/12/06 03:58:23;;;;;;;113.28;66.40;;;;;;;0.15;100.00;160614.03;5056897;28;20025;-58
2023/12/06 04:00:49;;;;;;;112.55;61.20;;;;;;;0.19;100.00;160623.41;5055249;28;20056;-59
2023/12/06 04:03:14;;;;;;;119.90;64.85;;;;;;;0.21;100.00;160628.78;5056401;28;20488;-59
2023/12/06 04:05:42;;;;;;;110.90;66.57;;;;;;;0.17;100.00;160618.09;5055928;28;20056;-59
2023/12/06 04:08:07;;;;;;;111.75;65.15;;;;;;;0.21;100.00;160627.47;5057077;28;20035;-59
2023/12/06 04:10:33;;;;;;;103.55;59.20;;;;;;;0.22;100.00;160631.47;5059466;28;20037;-59
2023/12/06 04:12:58;;;;;;;108.10;65.00;;;;;;;0.21;100.00;160627.47;5055727;28;20534;-59
2023/12/06 04:15:23;;;;;;;110.68;66.97;;;;;;;0.26;100.00;160642.16;5055226;28;20040;-59
2023/12/06 04:17:49;;;;;;;117.53;62.10;;;;;;;0.19;100.00;160623.41;5056644;28;20025;-58
2023/12/06 04:20:14;;;;;;;107.15;66.07;;;;;;;0.26;100.00;160640.84;5064044;28;20055;-58
2023/12/06 04:22:40;;;;;;;104.90;60.63;;;;;;;0.27;100.00;160644.84;5057271;28;20033;-58
2023/12/06 04:25:06;;;;;;;106.30;60.53;;;;;;;0.34;100.00;160660.94;5054948;28;20045;-58
2023/12/06 04:27:31;;;;;;;112.07;66.47;;;;;;;0.31;100.00;160655.59;5056647;28;20024;-58
2023/12/06 04:29:57;;;;;;;97.80;58.33;;;;;;;0.29;100.00;160650.22;5061620;28;20522;-58
2023/12/06 04:32:22;;;;;;;117.88;65.10;;;;;;;0.38;100.00;160671.69;5064632;28;20075;-59
2023/12/06 04:34:53;;;;;;;109.47;59.17;;;;;;;0.40;100.00;160677.06;5055578;28;20037;-58
2023/12/06 04:37:19;;;;;;;103.88;59.55;;;;;;;0.38;100.00;160671.69;5056503;28;20064;-58
2023/12/06 04:39:44;;;;;;;110.53;62.33;;;;;;;0.41;100.00;160679.75;5059079;28;20063;-58
2023/12/06 04:42:09;;;;;;;107.97;62.72;;;;;;;0.42;100.00;160683.75;5073813;28;20021;-58
2023/12/06 04:44:36;;;;;;;102.60;59.35;;;;;;;0.41;100.00;160679.75;5071590;28;20496;-58
2023/12/06 04:47:01;;;;;;;111.00;61.33;;;;;;;0.41;100.00;160679.75;5059595;28;20032;-59
2023/12/06 04:49:27;;;;;;;109.90;59.95;;;;;;;0.48;100.00;160698.50;5055183;28;20037;-58
2023/12/06 04:51:52;;;;;;;107.35;63.75;;;;;;;0.46;100.00;160694.44;5056351;28;20028;-58
2023/12/06 04:54:18;;;;;;;101.47;56.58;;;;;;;0.45;100.00;160690.44;5054540;28;20468;-59
2023/12/06 04:56:43;;;;;;;94.63;54.03;;;;;;;0.49;100.00;160701.16;5056877;28;20032;-58
2023/12/06 04:59:08;;;;;;;98.00;58.28;;;;;;;0.55;100.00;160715.91;5055240;28;20032;-59
2023/12/06 05:01:34;;;;;;;97.68;58.38;;;;;;;0.57;100.00;160722.59;5056016;28;20534;-59
2023/12/06 05:03:59;;;;;;;98.13;59.33;;;;;;;0.58;100.00;160723.97;5053728;28;20032;-58
2023/12/06 05:06:24;;;;;;;103.50;59.88;;;;;;;0.65;100.00;160741.38;5052122;28;20041;-58
2023/12/06 05:08:50;;;;;;;96.78;55.60;;;;;;;0.65;100.00;160741.38;5053478;28;20037;-58
2023/12/06 05:11:15;;;;;;;96.88;54.13;;;;;;;0.61;100.00;160733.34;5051526;28;20037;-58
2023/12/06 05:13:40;;;;;;;96.68;55.88;;;;;;;0.66;100.00;160745.44;5053102;28;20016;-58
2023/12/06 05:16:06;;;;;;;88.60;54.75;;;;;;;0.65;100.00;160741.38;5051468;28;20041;-58
2023/12/06 05:18:31;;;;;;;91.10;54.55;;;;;;;0.68;100.00;160749.44;5053192;28;20067;-58
2023/12/06 05:20:57;;;;;;;92.93;55.42;;;;;;;0.70;100.00;160754.81;5051844;28;20045;-58
2023/12/06 05:23:22;;;;;;;84.82;57.17;;;;;;;0.67;100.00;160746.75;5052472;28;20021;-58
2023/12/06 05:25:48;;;;;;;91.03;55.03;;;;;;;0.69;100.00;160752.13;5051611;28;20510;-58
2023/12/06 05:28:13;;;;;;;93.57;55.53;;;;;;;0.74;100.00;160765.53;5053017;28;20033;-58
2023/12/06 05:30:39;;;;;;;82.35;51.70;;;;;;;0.74;100.00;160765.53;5051229;28;20526;-58
2023/12/06 05:33:04;;;;;;;78.75;51.00;;;;;;;0.74;100.00;160765.53;5052884;28;20029;-58
2023/12/06 05:35:30;;;;;;;80.57;53.22;;;;;;;0.76;100.00;160770.91;5051128;28;20488;-58
2023/12/06 05:37:55;;;;;;;96.57;52.63;;;;;;;0.76;100.00;160770.91;5051071;28;20051;-58
2023/12/06 05:40:21;;;;;;;87.32;52.53;;;;;;;0.76;100.00;160770.91;5051111;28;20044;-58
2023/12/06 05:42:46;;;;;;;83.22;51.63;;;;;;;0.77;100.00;160773.59;5052755;28;20033;-58
2023/12/06 05:45:12;;;;;;;83.30;49.65;;;;;;;0.83;100.00;160789.66;5050577;28;20118;-58
2023/12/06 05:47:37;;;;;;;84.85;53.30;;;;;;;0.85;100.00;160795.03;5052688;28;20035;-58
2023/12/06 05:50:03;;;;;;;90.75;51.75;;;;;;;0.87;100.00;160800.38;5051384;28;20033;-58
2023/12/06 05:52:29;;;;;;;80.32;49.97;;;;;;;0.89;100.00;160805.75;5052430;28;20577;-58
2023/12/06 05:54:54;;;;;;;81.10;52.55;;;;;;;0.93;100.00;160815.13;5050578;28;20037;-58
2023/12/06 05:57:20;;;;;;;82.80;53.88;;;;;;;0.93;100.00;160816.47;5052541;28;20357;-58
2023/12/06 05:59:45;;;;;;;90.13;52.35;;;;;;;0.95;100.00;160821.84;5051195;28;20507;-58
2023/12/06 06:02:11;;;;;;;79.57;51.33;;;;;;;0.97;100.00;160824.53;5051729;28;20431;-58
2023/12/06 06:04:36;;;;;;;77.22;50.35;;;;;;;0.95;100.00;160821.84;5050673;28;20118;-58
2023/12/06 06:07:01;;;;;;;86.38;49.97;;;;;;;0.95;100.00;160821.84;5052364;28;20024;-58
2023/12/06 06:09:27;;;;;;;80.72;53.38;;;;;;;0.94;100.00;160817.81;5050241;28;20408;-58
2023/12/06 06:11:52;;;;;;;79.03;48.92;;;;;;;0.97;100.00;160824.53;5052419;28;20376;-58
2023/12/06 06:14:18;;;;;;;78.28;52.10;;;;;;;0.95;100.00;160821.84;5050224;28;20491;-58
2023/12/06 06:16:43;;;;;;;84.57;55.53;;;;;;;0.98;100.00;160827.22;5051656;28;20028;-59
2023/12/06 06:19:08;;;;;;;84.38;54.70;;;;;;;0.98;100.00;160828.53;5050901;28;20033;-58
2023/12/06 06:21:34;;;;;;;78.82;50.58;;;;;;;1.01;100.00;160835.22;5051874;28;20021;-58
2023/12/06 06:23:59;;;;;;;68.07;45.17;;;;;;;1.00;100.00;160833.91;5051409;28;20025;-58
2023/12/06 06:26:25;;;;;;;78.63;48.40;;;;;;;1.03;100.00;160840.59;5050686;28;20495;-58
2023/12/06 06:28:50;;;;;;;79.55;48.17;;;;;;;1.02;100.00;160837.91;5051954;28;20464;-58
2023/12/06 06:31:15;;;;;;;73.55;49.60;;;;;;;1.01;100.00;160836.59;5049820;28;20096;-58
2023/12/06 06:33:41;;;;;;;70.38;45.88;;;;;;;1.03;100.00;160840.59;5051776;28;20505;-58
2023/12/06 06:36:06;;;;;;;66.35;47.05;;;;;;;0.95;100.00;160820.50;5050183;28;20114;-59
2023/12/06 06:38:32;;;;;;;68.88;44.05;;;;;;;0.97;100.00;160825.84;5051348;28;20444;-58
2023/12/06 06:40:57;;;;;;;60.92;43.10;;;;;;;1.03;100.00;160840.59;5050218;28;20496;-58
2023/12/06 06:43:22;;;;;;;60.97;41.95;;;;;;;1.02;100.00;160839.28;5051422;28;20021;-58
2023/12/06 06:45:48;;;;;;;68.25;46.25;;;;;;;0.90;100.00;160808.44;5049808;28;20040;-58
2023/12/06 06:48:13;;;;;;;67.65;43.80;;;;;;;1.08;100.00;160854.06;5051423;28;20040;-58
2023/12/06 06:50:38;;;;;;;63.63;41.58;;;;;;;1.08;100.00;160854.06;5049957;28;20115;-58
2023/12/06 06:53:04;;;;;;;67.40;43.78;;;;;;;1.06;100.00;160850.00;5051105;28;20207;-58
2023/12/06 06:55:29;;;;;;;60.92;41.20;;;;;;;1.03;100.00;160840.59;5049784;28;20454;-58
2023/12/06 06:57:56;;;;;;;59.53;41.38;;;;;;;1.03;100.00;160840.59;5051613;28;20104;-58
2023/12/06 07:00:22;;;;;;;59.28;39.17;;;;;;;1.04;100.00;160843.28;5049237;28;20040;-58
2023/12/06 07:02:48;;;;;;;59.75;39.85;;;;;;;1.07;100.00;160852.69;5051387;28;20392;-58
2023/12/06 07:05:13;;;;;;;57.03;36.25;;;;;;;1.06;100.00;160848.69;5049495;28;20037;-59
2023/12/06 07:07:40;;;;;;;59.33;38.20;;;;;;;1.06;100.00;160850.00;5050766;28;20024;-58
2023/12/06 07:10:06;;;;;;;52.55;38.33;;;;;;;1.12;100.00;160864.75;5049786;28;20041;-58
2023/12/06 07:12:32;;;;;;;57.70;40.95;;;;;;;1.04;100.00;160844.63;5050777;28;20079;-58
2023/12/06 07:14:58;;;;;;;59.20;41.20;;;;;;;1.13;100.00;160867.44;5049278;28;20064;-58
2023/12/06 07:17:25;;;;;;;67.50;44.05;;;;;;;1.12;100.00;160864.75;5050697;28;20028;-58
2023/12/06 07:19:50;;;;;;;61.25;40.05;;;;;;;1.13;100.00;160867.44;5049428;28;20041;-58
2023/12/06 07:22:16;;;;;;;61.63;39.22;;;;;;;1.14;100.00;160870.13;5050226;28;20024;-58
2023/12/06 07:24:41;;;;;;;59.47;38.72;;;;;;;1.20;100.00;160884.84;5049694;28;20041;-58
2023/12/06 07:27:07;;;;;;;56.65;39.90;;;;;;;1.20;100.00;160886.22;5050568;28;20020;-58
2023/12/06 07:29:32;;;;;;;58.28;40.35;;;;;;;1.21;100.00;160887.53;5048728;28;20377;-58
2023/12/06 07:31:58;;;;;;;64.25;42.92;;;;;;;1.21;100.00;160887.53;5050672;28;20041;-58
2023/12/06 07:34:24;;;;;;;62.55;41.78;;;;;;;1.24;100.00;160896.94;5049280;28;20067;-58
2023/12/06 07:36:49;;;;;;;62.88;40.50;;;;;;;1.25;100.00;160899.63;5050097;28;20056;-58
2023/12/06 07:39:14;;;;;;;65.32;41.50;;;;;;;1.26;100.00;160901.00;5049305;28;20021;-58
2023/12/06 07:41:40;;;;;;;66.90;43.53;;;;;;;1.26;100.00;160901.00;5050554;28;20036;-58
2023/12/06 07:44:06;;;;;;;74.10;44.75;;;;;;;1.26;100.00;160902.31;5048934;28;20082;-58
2023/12/06 07:46:31;;;;;;;68.35;44.40;;;;;;;1.32;100.00;160915.72;5050389;28;20032;-58
2023/12/06 07:48:56;;;;;;;65.05;43.30;;;;;;;1.36;100.00;160926.47;5048975;28;20025;-58
2023/12/06 07:51:22;;;;;;;60.85;42.78;;;;;;;1.38;100.00;160933.16;5049850;28;20504;-58
2023/12/06 07:53:47;;;;;;;65.57;44.47;;;;;;;1.38;100.00;160933.16;5050397;28;20104;-58
2023/12/06 07:56:13;;;;;;;70.78;44.63;;;;;;;1.39;100.00;160935.84;5048754;28;20037;-58
2023/12/06 07:58:38;;;;;;;74.55;49.05;;;;;;;1.41;100.00;160939.88;5050128;28;20387;-58
2023/12/06 08:01:05;;;;;;;76.22;46.95;;;;;;;1.43;100.00;160946.56;5049138;28;20033;-58
2023/12/06 08:03:31;;;;;;;73.65;46.97;;;;;;;1.47;100.00;160955.97;5044335;28;20529;-59
2023/12/06 08:05:59;;;;;;;70.22;44.28;;;;;;;1.47;100.00;160954.63;5045918;28;20044;-56
2023/12/06 08:08:28;;;;;;;54.57;33.30;;;;;;;1.53;100.00;160970.72;5050505;28;20028;-59
2023/12/06 08:10:54;;;;;;;76.63;45.47;;;;;;;1.55;100.00;160977.44;5048882;28;20037;-56
2023/12/06 08:13:19;;;;;;;70.65;46.05;;;;;;;1.59;100.00;160986.81;5050233;28;20035;-56
2023/12/06 08:15:45;;;;;;;81.70;49.20;;;;;;;1.54;100.00;160974.75;5048912;28;20033;-56
2023/12/06 08:18:10;;;;;;;66.78;45.97;;;;;;;1.63;100.00;160996.22;5050300;28;20048;-56
2023/12/06 08:20:36;;;;;;;76.32;47.00;;;;;;;1.65;100.00;161001.59;5048698;28;20041;-56
2023/12/06 08:23:03;;;;;;;72.80;46.47;;;;;;;1.73;100.00;161024.38;5050352;28;20020;-56
2023/12/06 08:25:28;;;;;;;72.75;47.50;;;;;;;1.78;100.00;161036.47;5048615;28;20080;-56
2023/12/06 08:27:54;;;;;;;78.22;49.22;;;;;;;1.81;100.00;161043.16;5050086;28;20029;-56
2023/12/06 08:30:20;;;;;;;66.38;44.72;;;;;;;1.84;100.00;161052.56;5048151;28;20036;-56
2023/12/06 08:32:46;;;;;;;67.93;46.97;;;;;;;1.92;100.00;161071.34;5050067;28;20473;-56
2023/12/06 08:35:12;;;;;;;67.65;41.72;;;;;;;1.91;100.00;161070.03;5048551;28;20492;-56
2023/12/06 08:37:39;;;;;;;67.30;43.10;;;;;;;1.86;100.00;161057.94;5049547;28;20044;-56
2023/12/06 08:40:06;;;;;;;61.67;43.58;;;;;;;1.92;100.00;161071.34;5051661;28;20045;-56
2023/12/06 08:42:32;;;;;;;57.63;42.80;;;;;;;1.91;100.00;161070.03;5053831;28;20392;-56
2023/12/06 08:44:57;;;;;;;64.80;39.53;;;;;;;1.87;100.00;161060.63;5052218;28;20036;-56
2023/12/06 08:47:22;;;;;;;63.47;42.05;;;;;;;1.90;100.00;161068.66;5051306;28;20039;-56
2023/12/06 08:49:48;;;;;;;57.22;40.13;;;;;;;1.95;100.00;161080.75;5050853;28;20040;-56
2023/12/06 08:52:14;;;;;;;62.38;42.83;;;;;;;2.01;100.00;161095.50;5053176;28;20036;-56
2023/12/06 08:54:40;;;;;;;70.40;41.35;;;;;;;1.96;100.00;161082.09;5052161;28;20045;-56
2023/12/06 08:57:06;;;;;;;57.05;39.50;;;;;;;1.98;100.00;161088.81;5053749;28;20025;-56
2023/12/06 08:59:31;;;;;;;63.30;42.45;;;;;;;2.05;100.00;161106.22;5051610;28;20041;-56
2023/12/06 09:01:57;;;;;;;52.05;40.13;;;;;;;2.14;100.00;161130.41;5053605;28;20025;-56
2023/12/06 09:04:22;;;;;;;67.38;40.70;;;;;;;2.19;100.00;161143.84;5051852;28;20040;-56
2023/12/06 09:06:48;;;;;;;54.63;38.65;;;;;;;2.12;100.00;161125.06;5052937;28;20025;-56
2023/12/06 09:09:17;;;;;;;52.10;37.42;;;;;;;2.17;100.00;161138.47;5051745;28;20491;-56
2023/12/06 09:11:42;;;;;;;;;;;;;;;2.21;100.00;161149.19;5054010;28;20024;-56
2023/12/06 09:14:08;;;;;;;52.55;36.85;;;;;;;2.22;100.00;161151.88;5051371;28;20004;-56
2023/12/06 09:16:33;;;;;;;65.63;40.20;;;;;;;2.28;100.00;161165.28;5052644;28;20028;-56
2023/12/06 09:18:58;;;;;;;67.35;36.03;;;;;;;2.33;100.00;161180.06;5051627;28;20434;-56
2023/12/06 09:21:27;;;;;;;58.75;39.65;;;;;;;2.35;100.00;161184.06;5052618;28;20499;-56
2023/12/06 09:23:52;;;;;;;;;;;;;;;2.38;100.00;161192.16;5053693;28;20051;-56
2023/12/06 09:26:19;;;;;;;52.83;35.88;;;;;;;2.47;100.00;161214.97;5049723;28;20367;-56
2023/12/06 09:28:44;;;;;;;51.38;38.60;;;;;;;2.50;100.00;161224.34;5051303;28;20500;-56
2023/12/06 09:31:10;;;;;;;47.33;38.83;;;;;;;2.54;100.00;161235.13;5050525;28;20045;-56
2023/12/06 09:33:35;;;;;;;51.72;38.65;;;;;;;2.55;100.00;161236.44;5051751;28;20028;-56
2023/12/06 09:36:01;;;;;;;50.72;36.50;;;;;;;2.50;100.00;161224.34;5050186;28;20044;-56
2023/12/06 09:38:26;;;;;;;50.83;36.20;;;;;;;2.54;100.00;161235.13;5051977;28;20444;-56
2023/12/06 09:40:52;;;;;;;52.70;37.03;;;;;;;2.61;100.00;161251.22;5051435;28;20084;-56
2023/12/06 09:43:18;;;;;;;51.55;37.17;;;;;;;2.67;100.00;161267.31;5052197;28;20021;-56
2023/12/06 09:45:45;;;;;;;52.08;36.63;;;;;;;2.67;100.00;161267.31;5051506;28;20043;-56
2023/12/06 09:48:11;;;;;;;54.30;38.30;;;;;;;2.73;100.00;161283.44;5052520;28;20025;-56
2023/12/06 09:50:36;;;;;;;44.45;35.85;;;;;;;2.72;100.00;161279.41;5050382;28;20048;-56
2023/12/06 09:53:02;;;;;;;44.67;35.85;;;;;;;2.72;100.00;161280.75;5052649;28;20029;-56
2023/12/06 09:55:31;;;;;;;48.88;37.83;;;;;;;2.71;100.00;161278.09;5050815;28;20499;-56
2023/12/06 09:57:57;;;;;;;51.35;37.15;;;;;;;2.70;100.00;161276.72;5052304;28;20079;-56
2023/12/06 10:00:23;;;;;;;51.20;36.45;;;;;;;2.73;100.00;161283.44;5050834;28;20040;-56
2023/12/06 10:02:54;;;;;;;52.70;37.20;;;;;;;2.79;100.00;161299.53;5052332;28;20480;-56
2023/12/06 10:05:20;;;;;;;57.45;36.40;;;;;;;2.78;100.00;161296.88;5050468;28;20045;-56
2023/12/06 10:07:46;;;;;;;49.22;36.55;;;;;;;2.83;100.00;161310.31;5052230;28;20028;-56
2023/12/06 10:10:19;;;;;;;51.88;38.50;;;;;;;2.89;100.00;161323.72;5050630;28;20234;-56
2023/12/06 10:12:58;;;;;;;48.17;37.03;;;;;;;2.90;100.00;161326.41;5051718;28;20485;-56
2023/12/06 10:15:23;;;;;;;;;;;;;;;2.94;100.00;161337.19;5050888;28;20041;-56
2023/12/06 10:17:49;;;;;;;49.92;36.03;;;;;;;2.95;100.00;161341.19;5052080;28;19912;-56
2023/12/06 10:20:15;;;;;;;89.32;47.17;;;;;;;2.97;100.00;161345.22;5050141;28;20072;-56
2023/12/06 10:22:41;;;;;;;57.25;38.20;;;;;;;3.02;100.00;161358.63;5051893;28;20480;-56
2023/12/06 10:25:10;;;;;;;54.05;39.03;;;;;;;3.08;100.00;161374.78;5050726;28;20131;-56
2023/12/06 10:27:36;;;;;;;54.80;41.05;;;;;;;3.02;100.00;161358.63;5051991;28;20075;-56
2023/12/06 10:30:05;;;;;;;50.47;39.00;;;;;;;3.07;100.00;161372.09;5050398;28;20504;-56
2023/12/06 10:32:31;;;;;;;44.63;35.13;;;;;;;3.08;100.00;161374.78;5051692;28;20060;-56
2023/12/06 10:35:02;;;;;;;54.70;36.40;;;;;;;3.10;100.00;161380.13;5050258;28;20041;-56
2023/12/06 10:37:28;;;;;;;52.83;36.90;;;;;;;3.15;100.00;161392.22;5051282;28;20045;-56
2023/12/06 10:40:11;;;;;;;61.97;38.78;;;;;;;3.16;100.00;161394.91;5050510;28;20045;-56
2023/12/06 10:42:40;;;;;;;45.40;34.92;;;;;;;3.16;100.00;161396.22;5051478;28;20021;-57
2023/12/06 10:45:07;;;;;;;52.80;38.25;;;;;;;3.15;100.00;161393.59;5050151;28;20094;-56
2023/12/06 10:47:34;;;;;;;44.97;35.65;;;;;;;3.21;100.00;161407.00;5051562;28;20053;-56
2023/12/06 10:50:00;;;;;;;50.25;37.25;;;;;;;3.24;100.00;161415.09;5049804;28;20091;-57
2023/12/06 10:52:29;;;;;;;61.35;38.50;;;;;;;3.24;100.00;161416.41;5051196;28;20029;-56
2023/12/06 10:54:55;;;;;;;42.67;29.77;;;;;;;3.32;100.00;161436.53;5049650;28;20461;-56
2023/12/06 10:57:20;;;;;;;49.67;36.67;;;;;;;3.37;100.00;161450.00;5050569;28;20480;-56